الصفحة الرئيسية
METAR-TAF:

METAR-TAF

مطار :

Kingaroy, أستراليا

دائرة عرض: 26-34-48S, خط طول: 151-50-30E, ارتفاع: 455 متر

مراقبة الطقس الحالي

تاريخ ووقت الإصدار 1ساعة و 4 دقيقة قبل الساعة 11:00UTC
ريح 3 عقدة من الشرق
درجة الحرارة 14°درجة مئوية
الرطوبة 77%
ضغط 1025 hPa
الرؤية 10 كم أو أكثر
ملبد بالغيوم على ارتفاع 4700 قدم

METAR: YKRY 231100Z AUTO 10003KT 9999 // OVC047 14/10 Q1025

زمن: 22:04 (12:04 UTC)


TAF: مفقودة

أرصاد الطقس والتوقعات من أكثر من 4000 مطار (تقارير الطقس للمطار METAR والتنبؤ بالطقس بالمطارTAF).

المحطات المتاحة هي النقط الصفراء والحمراء على الخريطة.

حرك المؤشر فوق النقطة لمعرفة اسم المحطة.

ثم انقر لمعرفة أرصاد وتوقعات الطقس.

لتغيير الخارطة: اضغط على الأزرار الخضراء مع رمز الصليب الأسود للتكبير. على الزر الأخضر مع شرطة للتصغير، أو على الأسهم الخضراء للخرائط المجاورة.


METAR-TAF: